createdAt,value
2022-12-03T00:02:07.392Z,2.30
2022-12-03T00:04:34.200Z,2.40
2022-12-03T00:07:00.822Z,2.40
2022-12-03T00:09:27.448Z,2.50
2022-12-03T00:11:54.071Z,2.50
2022-12-03T00:14:20.648Z,2.50
2022-12-03T00:16:47.435Z,2.50
2022-12-03T00:19:14.058Z,2.50
2022-12-03T00:21:40.658Z,2.50
2022-12-03T00:24:07.710Z,2.60
2022-12-03T00:26:34.304Z,2.60
2022-12-03T00:29:00.889Z,2.60
2022-12-03T00:31:27.873Z,2.60
2022-12-03T00:33:54.577Z,2.60
2022-12-03T00:36:21.245Z,2.60
2022-12-03T00:38:48.066Z,2.70
2022-12-03T00:41:14.701Z,2.70
2022-12-03T00:43:41.337Z,2.80
2022-12-03T00:46:08.017Z,2.80
2022-12-03T00:48:34.696Z,2.70
2022-12-03T00:51:01.410Z,2.80
2022-12-03T00:53:28.172Z,2.80
2022-12-03T00:55:54.830Z,2.80
2022-12-03T00:58:21.481Z,2.80
2022-12-03T01:00:48.099Z,2.80
2022-12-03T01:03:14.668Z,2.80
2022-12-03T01:05:41.276Z,2.80
2022-12-03T01:08:08.768Z,2.80
2022-12-03T01:10:35.477Z,2.70
2022-12-03T01:13:02.072Z,2.70
2022-12-03T01:15:28.676Z,2.60
2022-12-03T01:17:55.248Z,2.60
2022-12-03T01:20:21.955Z,2.60
2022-12-03T01:22:48.592Z,2.60
2022-12-03T01:25:15.577Z,2.60
2022-12-03T01:27:42.359Z,2.60
2022-12-03T01:30:11.035Z,2.60
2022-12-03T01:32:37.674Z,2.60
2022-12-03T01:35:04.890Z,2.60
2022-12-03T01:37:31.505Z,2.60
2022-12-03T01:39:58.164Z,2.60
2022-12-03T01:42:28.866Z,2.50
2022-12-03T01:44:58.335Z,2.60
2022-12-03T01:47:34.988Z,2.60
2022-12-03T01:50:04.080Z,2.60
2022-12-03T01:52:34.199Z,2.70
2022-12-03T01:55:04.197Z,2.60
2022-12-03T01:57:40.699Z,2.70
2022-12-03T02:00:12.668Z,2.70
2022-12-03T02:02:39.420Z,2.60
2022-12-03T02:05:17.912Z,2.60
2022-12-03T02:07:44.596Z,2.70
2022-12-03T02:10:13.945Z,2.60
2022-12-03T02:12:58.716Z,2.70
2022-12-03T02:15:25.624Z,2.80
2022-12-03T02:17:53.292Z,2.80
2022-12-03T02:20:20.313Z,2.80
2022-12-03T02:23:08.535Z,2.80
2022-12-03T02:25:36.632Z,2.90
2022-12-03T02:28:05.085Z,2.80
2022-12-03T02:30:32.326Z,2.80
2022-12-03T02:32:59.630Z,2.80
2022-12-03T02:35:30.284Z,2.70
2022-12-03T02:38:02.093Z,2.70
2022-12-03T02:40:32.324Z,2.70
2022-12-03T02:43:01.460Z,2.80
2022-12-03T02:45:35.144Z,2.90
2022-12-03T02:48:15.389Z,2.90
2022-12-03T02:50:48.121Z,2.90
2022-12-03T02:53:20.248Z,2.90
2022-12-03T02:55:48.278Z,2.90
2022-12-03T02:58:15.566Z,2.90
2022-12-03T03:00:43.858Z,2.90
2022-12-03T03:03:10.864Z,2.90
2022-12-03T03:05:40.025Z,2.90
2022-12-03T03:08:08.725Z,2.90
2022-12-03T03:10:38.455Z,2.90
2022-12-03T03:13:10.148Z,3.00
2022-12-03T03:15:41.545Z,3.00
2022-12-03T03:18:09.223Z,3.00
2022-12-03T03:20:37.089Z,2.90
2022-12-03T03:23:14.659Z,2.90
2022-12-03T03:25:47.625Z,2.90
2022-12-03T03:28:15.354Z,2.90
2022-12-03T03:30:43.476Z,2.90
2022-12-03T03:33:12.402Z,3.00
2022-12-03T03:35:39.711Z,3.00
2022-12-03T03:38:07.912Z,3.00
2022-12-03T03:40:34.787Z,3.00
2022-12-03T03:43:01.637Z,3.00
2022-12-03T03:45:29.577Z,3.10
2022-12-03T03:47:59.881Z,3.10
2022-12-03T03:50:29.247Z,3.00
2022-12-03T03:52:56.644Z,3.00
2022-12-03T03:55:23.645Z,3.00
2022-12-03T03:57:50.505Z,3.00
2022-12-03T04:00:17.540Z,3.00
2022-12-03T04:02:44.440Z,3.00
2022-12-03T04:05:18.952Z,3.00
2022-12-03T04:07:45.873Z,3.00
2022-12-03T04:10:32.904Z,2.90
2022-12-03T04:13:00.375Z,2.90
2022-12-03T04:15:27.763Z,2.90
2022-12-03T04:18:26.440Z,2.90
2022-12-03T04:21:13.014Z,2.80
2022-12-03T04:23:39.847Z,2.80
2022-12-03T04:26:25.256Z,2.80
2022-12-03T04:28:51.870Z,2.90
2022-12-03T04:31:36.985Z,2.80
2022-12-03T04:34:22.463Z,2.80
2022-12-03T04:36:49.267Z,2.70
2022-12-03T04:39:16.143Z,2.70
2022-12-03T04:41:42.761Z,2.70
2022-12-03T04:44:27.980Z,2.70
2022-12-03T04:46:54.576Z,2.80
2022-12-03T04:49:21.484Z,2.80
2022-12-03T04:51:48.169Z,2.80
2022-12-03T04:54:14.919Z,2.80
2022-12-03T04:56:41.675Z,2.70
2022-12-03T04:59:15.818Z,2.70
2022-12-03T05:01:43.606Z,2.60
2022-12-03T05:04:10.857Z,2.60
2022-12-03T05:06:37.687Z,2.60
2022-12-03T05:09:04.705Z,2.70
2022-12-03T05:11:31.375Z,2.60
2022-12-03T05:13:58.107Z,2.50
2022-12-03T05:16:24.858Z,2.50
2022-12-03T05:18:51.487Z,2.50
2022-12-03T05:21:18.104Z,2.60
2022-12-03T05:23:44.838Z,2.60
2022-12-03T05:26:11.532Z,2.60
2022-12-03T05:28:38.187Z,2.60
2022-12-03T05:31:05.086Z,2.50
2022-12-03T05:33:31.998Z,2.50
2022-12-03T05:35:58.734Z,2.40
2022-12-03T05:38:25.343Z,2.40
2022-12-03T05:40:51.971Z,2.50
2022-12-03T05:43:18.617Z,2.40
2022-12-03T05:45:45.361Z,2.40
2022-12-03T05:48:16.603Z,2.50
2022-12-03T05:50:45.058Z,2.50
2022-12-03T05:53:15.927Z,2.50
2022-12-03T05:55:42.734Z,2.50
2022-12-03T05:58:09.469Z,2.50
2022-12-03T06:00:42.473Z,2.40
2022-12-03T06:03:10.666Z,2.40
2022-12-03T06:05:37.587Z,2.40
2022-12-03T06:08:04.739Z,2.40
2022-12-03T06:10:32.402Z,2.40
2022-12-03T06:12:59.061Z,2.40
2022-12-03T06:15:25.676Z,2.40
2022-12-03T06:17:52.411Z,2.40
2022-12-03T06:20:20.684Z,2.50
2022-12-03T06:22:47.739Z,2.50
2022-12-03T06:25:15.619Z,2.50
2022-12-03T06:27:42.459Z,2.50
2022-12-03T06:30:12.464Z,2.40
2022-12-03T06:32:39.085Z,2.40
2022-12-03T06:35:05.921Z,2.30
2022-12-03T06:37:32.565Z,2.30
2022-12-03T06:39:59.173Z,2.30
2022-12-03T06:42:25.789Z,2.30
2022-12-03T06:44:52.868Z,2.30
2022-12-03T06:47:20.135Z,2.20
2022-12-03T06:49:46.903Z,2.20
2022-12-03T06:52:13.532Z,2.10
2022-12-03T06:54:40.131Z,2.10
2022-12-03T06:57:06.785Z,2.10
2022-12-03T06:59:35.666Z,2.10
2022-12-03T07:02:02.387Z,2.10
2022-12-03T07:04:29.104Z,2.10
2022-12-03T07:06:55.723Z,2.10
2022-12-03T07:09:22.382Z,2.10
2022-12-03T07:11:49.017Z,2.10
2022-12-03T07:14:15.681Z,2.10
2022-12-03T07:16:43.694Z,2.10
2022-12-03T07:19:11.480Z,2.10
2022-12-03T07:21:38.319Z,2.00
2022-12-03T07:24:05.586Z,2.10
2022-12-03T07:26:32.293Z,2.10
2022-12-03T07:28:59.089Z,2.10
2022-12-03T07:31:25.755Z,2.20
2022-12-03T07:33:52.524Z,2.20
2022-12-03T07:36:19.189Z,2.20
2022-12-03T07:38:45.921Z,2.20
2022-12-03T07:41:12.619Z,2.20
2022-12-03T07:43:39.255Z,2.30
2022-12-03T07:46:05.976Z,2.30
2022-12-03T07:48:32.670Z,2.30
2022-12-03T07:50:59.283Z,2.30
2022-12-03T07:53:25.899Z,2.20
2022-12-03T07:55:52.524Z,2.20
2022-12-03T07:58:19.194Z,2.10
2022-12-03T08:00:45.893Z,2.20
2022-12-03T08:03:12.581Z,2.20
2022-12-03T08:05:39.193Z,2.20
2022-12-03T08:08:06.096Z,2.20
2022-12-03T08:10:32.899Z,2.30
2022-12-03T08:13:00.117Z,2.30
2022-12-03T08:15:32.462Z,2.30
2022-12-03T08:18:18.060Z,2.20
2022-12-03T08:20:46.464Z,2.10
2022-12-03T08:23:19.458Z,2.20
2022-12-03T08:25:46.645Z,2.20
2022-12-03T08:28:19.269Z,2.30
2022-12-03T08:30:58.964Z,2.30
2022-12-03T08:33:35.355Z,2.30
2022-12-03T08:36:12.414Z,2.30
2022-12-03T08:38:40.992Z,2.30
2022-12-03T08:41:14.322Z,2.40
2022-12-03T08:43:43.651Z,2.30
2022-12-03T08:46:19.270Z,2.40
2022-12-03T08:48:49.040Z,2.30
2022-12-03T08:51:24.925Z,2.30
2022-12-03T08:54:01.555Z,2.30
2022-12-03T08:56:31.863Z,2.30
2022-12-03T08:59:00.536Z,2.40
2022-12-03T09:01:53.619Z,2.40
2022-12-03T09:04:39.004Z,2.40
2022-12-03T09:07:05.827Z,2.30
2022-12-03T09:09:33.608Z,2.30
2022-12-03T09:12:01.973Z,2.30
2022-12-03T09:14:28.868Z,2.40
2022-12-03T09:16:56.401Z,2.30
2022-12-03T09:19:25.376Z,2.40
2022-12-03T09:21:52.918Z,2.50
2022-12-03T09:24:20.279Z,2.50
2022-12-03T09:26:47.063Z,2.50
2022-12-03T09:29:13.727Z,2.50
2022-12-03T09:31:40.889Z,2.60
2022-12-03T09:34:07.991Z,2.60
2022-12-03T09:36:34.688Z,2.60
2022-12-03T09:39:01.334Z,2.50
2022-12-03T09:41:28.504Z,2.40
2022-12-03T09:44:04.785Z,2.40
2022-12-03T09:46:33.951Z,2.40
2022-12-03T09:49:01.184Z,2.40
2022-12-03T09:51:34.597Z,2.50
2022-12-03T09:54:04.501Z,2.60
2022-12-03T09:56:31.788Z,2.60
2022-12-03T09:58:58.935Z,2.60
2022-12-03T10:01:29.907Z,2.70
2022-12-03T10:03:58.132Z,2.70
2022-12-03T10:06:25.066Z,2.70
2022-12-03T10:08:54.637Z,2.80
2022-12-03T10:11:24.283Z,2.70
2022-12-03T10:13:53.315Z,2.80
2022-12-03T10:16:21.443Z,2.80
2022-12-03T10:18:55.468Z,2.80
2022-12-03T10:21:34.527Z,2.80
2022-12-03T10:24:21.243Z,2.90
2022-12-03T10:26:49.617Z,2.80
2022-12-03T10:29:33.248Z,2.80
2022-12-03T10:32:18.766Z,2.90
2022-12-03T10:34:46.980Z,2.90
2022-12-03T10:37:21.310Z,3.00
2022-12-03T10:40:01.188Z,3.00
2022-12-03T10:42:31.879Z,3.00
2022-12-03T10:45:20.435Z,2.90
2022-12-03T10:48:04.430Z,2.90
2022-12-03T10:50:32.319Z,3.00
2022-12-03T10:52:59.119Z,3.00
2022-12-03T10:55:27.187Z,3.00
2022-12-03T10:57:53.884Z,3.00
2022-12-03T11:00:20.915Z,3.00
2022-12-03T11:02:54.859Z,3.10
2022-12-03T11:05:29.309Z,3.10
2022-12-03T11:07:56.691Z,3.10
2022-12-03T11:10:23.801Z,3.20
2022-12-03T11:13:27.783Z,3.10
2022-12-03T11:15:54.720Z,3.20
2022-12-03T11:18:36.104Z,3.20
2022-12-03T11:21:13.771Z,3.40
2022-12-03T11:23:46.474Z,3.50
2022-12-03T11:26:18.891Z,3.40
2022-12-03T11:28:46.253Z,3.30
2022-12-03T11:31:42.484Z,3.30
2022-12-03T11:34:18.393Z,3.20
2022-12-03T11:37:09.807Z,3.20
2022-12-03T11:39:51.752Z,3.20
2022-12-03T11:42:27.711Z,3.20
2022-12-03T11:45:08.264Z,3.30
2022-12-03T11:47:44.557Z,3.30
2022-12-03T11:50:22.828Z,3.30
2022-12-03T11:52:55.436Z,3.30
2022-12-03T11:55:37.693Z,3.30
2022-12-03T11:58:28.647Z,3.40
2022-12-03T12:00:57.785Z,3.30
2022-12-03T12:03:33.124Z,3.40
2022-12-03T12:06:04.515Z,3.50
2022-12-03T12:08:32.299Z,3.50
2022-12-03T12:10:59.756Z,3.50
2022-12-03T12:13:32.506Z,3.50
2022-12-03T12:16:04.937Z,3.50
2022-12-03T12:18:38.613Z,3.50
2022-12-03T12:21:56.917Z,3.40
2022-12-03T12:24:36.211Z,3.50
2022-12-03T12:27:09.406Z,3.50
2022-12-03T12:29:38.235Z,3.40
2022-12-03T12:32:12.939Z,3.40
2022-12-03T12:34:41.143Z,3.40
2022-12-03T12:37:26.826Z,3.40
2022-12-03T12:39:56.924Z,3.40
2022-12-03T12:42:38.266Z,3.40
2022-12-03T12:45:07.655Z,3.40
2022-12-03T12:47:35.771Z,3.40
2022-12-03T12:50:10.755Z,3.40
2022-12-03T12:53:02.608Z,3.40
2022-12-03T12:55:29.212Z,3.40
2022-12-03T12:58:01.451Z,3.40
2022-12-03T13:00:28.161Z,3.30
2022-12-03T13:02:59.961Z,3.80
2022-12-03T13:05:38.450Z,4.50
2022-12-03T13:08:27.390Z,4.00
2022-12-03T13:10:55.838Z,3.70
2022-12-03T13:13:25.268Z,3.70
2022-12-03T13:16:11.056Z,3.60
2022-12-03T13:18:45.803Z,4.40
2022-12-03T13:21:42.445Z,4.00
2022-12-03T13:24:47.662Z,3.80
2022-12-03T13:27:17.433Z,3.60
2022-12-03T13:29:51.157Z,3.60
2022-12-03T13:32:27.503Z,3.60
2022-12-03T13:35:04.010Z,3.50
2022-12-03T13:37:31.661Z,3.50
2022-12-03T13:40:08.878Z,3.60
2022-12-03T13:42:40.449Z,3.60
2022-12-03T13:45:15.840Z,3.60
2022-12-03T13:47:47.091Z,3.60
2022-12-03T13:50:29.721Z,3.60
2022-12-03T13:52:56.953Z,3.60
2022-12-03T13:55:28.883Z,3.60
2022-12-03T13:57:56.144Z,3.50
2022-12-03T14:00:23.550Z,3.40
2022-12-03T14:02:50.232Z,3.30
2022-12-03T14:05:17.013Z,3.40
2022-12-03T14:07:43.716Z,3.40
2022-12-03T14:10:12.859Z,3.40
2022-12-03T14:12:39.515Z,3.40
2022-12-03T14:15:06.722Z,3.40
2022-12-03T14:17:33.328Z,3.50
2022-12-03T14:20:01.300Z,3.50
2022-12-03T14:22:28.187Z,3.50
2022-12-03T14:24:54.842Z,3.50
2022-12-03T14:27:24.615Z,3.60
2022-12-03T14:29:51.914Z,3.60
2022-12-03T14:32:19.041Z,3.60
2022-12-03T14:34:45.747Z,3.60
2022-12-03T14:37:12.834Z,3.60
2022-12-03T14:39:39.658Z,3.60
2022-12-03T14:42:16.418Z,3.50
2022-12-03T14:44:45.594Z,3.50
2022-12-03T14:47:13.453Z,3.40
2022-12-03T14:49:40.321Z,3.40
2022-12-03T14:52:11.335Z,3.50
2022-12-03T14:54:39.120Z,3.40
2022-12-03T14:57:05.787Z,3.40
2022-12-03T14:59:32.514Z,3.40
2022-12-03T15:01:59.415Z,3.50
2022-12-03T15:04:26.299Z,3.50
2022-12-03T15:06:53.038Z,3.50
2022-12-03T15:09:20.392Z,3.50
2022-12-03T15:11:47.034Z,3.60
2022-12-03T15:14:13.929Z,3.40
2022-12-03T15:16:40.596Z,3.40
2022-12-03T15:19:07.270Z,3.50
2022-12-03T15:21:34.857Z,3.50
2022-12-03T15:24:02.667Z,3.50
2022-12-03T15:26:29.739Z,3.50
2022-12-03T15:28:56.421Z,3.60
2022-12-03T15:31:23.286Z,3.60
2022-12-03T15:33:50.312Z,3.60
2022-12-03T15:36:17.028Z,3.60
2022-12-03T15:38:44.068Z,3.60
2022-12-03T15:41:29.447Z,3.70
2022-12-03T15:44:01.944Z,3.60
2022-12-03T15:46:29.479Z,3.60
2022-12-03T15:48:57.494Z,3.40
2022-12-03T15:51:25.092Z,3.40
2022-12-03T15:53:52.096Z,3.40
2022-12-03T15:56:18.833Z,3.40
2022-12-03T15:58:45.433Z,3.40
2022-12-03T16:01:13.545Z,3.40
2022-12-03T16:03:41.135Z,3.40
2022-12-03T16:06:07.972Z,3.40
2022-12-03T16:08:34.724Z,3.40
2022-12-03T16:11:01.402Z,3.40
2022-12-03T16:13:28.027Z,3.50
2022-12-03T16:15:54.728Z,3.50
2022-12-03T16:18:21.431Z,3.40
2022-12-03T16:20:48.149Z,3.40
2022-12-03T16:23:14.823Z,3.40
2022-12-03T16:25:41.430Z,3.40
2022-12-03T16:28:08.562Z,3.40
2022-12-03T16:30:36.242Z,3.40
2022-12-03T16:33:03.418Z,3.40
2022-12-03T16:35:30.165Z,3.40
2022-12-03T16:37:56.934Z,3.30
2022-12-03T16:40:23.548Z,3.40
2022-12-03T16:42:50.186Z,3.40
2022-12-03T16:45:33.273Z,3.40
2022-12-03T16:48:01.727Z,3.50
2022-12-03T16:50:30.158Z,3.40
2022-12-03T16:52:57.676Z,3.50
2022-12-03T16:55:24.713Z,3.50
2022-12-03T16:57:51.311Z,3.50
2022-12-03T17:00:18.252Z,3.50
2022-12-03T17:02:45.094Z,3.40
2022-12-03T17:05:12.115Z,3.40
2022-12-03T17:07:38.860Z,3.40
2022-12-03T17:10:06.199Z,3.50
2022-12-03T17:13:00.664Z,3.60
2022-12-03T17:15:19.459Z,3.50
2022-12-03T17:17:46.155Z,3.40
2022-12-03T17:20:14.511Z,3.40
2022-12-03T17:22:41.663Z,3.40
2022-12-03T17:25:08.911Z,3.40
2022-12-03T17:27:37.024Z,3.40
2022-12-03T17:30:06.057Z,3.40
2022-12-03T17:32:32.888Z,3.40
2022-12-03T17:34:59.589Z,3.40
2022-12-03T17:37:26.213Z,3.40
2022-12-03T17:39:53.120Z,3.40
2022-12-03T17:42:19.883Z,3.30
2022-12-03T17:44:46.497Z,3.30
2022-12-03T17:47:13.179Z,3.30
2022-12-03T17:49:40.200Z,3.20
2022-12-03T17:52:06.842Z,3.30
2022-12-03T17:54:55.309Z,3.20
2022-12-03T17:57:20.139Z,3.20
2022-12-03T17:59:46.764Z,3.20
2022-12-03T18:02:13.777Z,3.20
2022-12-03T18:04:40.576Z,3.30
2022-12-03T18:07:07.406Z,3.20
2022-12-03T18:09:34.490Z,3.10
2022-12-03T18:12:01.245Z,3.10
2022-12-03T18:14:27.873Z,3.10
2022-12-03T18:16:54.589Z,3.10
2022-12-03T18:19:21.264Z,3.10
2022-12-03T18:21:48.093Z,3.10
2022-12-03T18:24:14.999Z,3.10
2022-12-03T18:26:42.592Z,3.10
2022-12-03T18:29:09.271Z,3.10
2022-12-03T18:31:35.960Z,3.10
2022-12-03T18:34:02.641Z,3.10
2022-12-03T18:36:33.440Z,3.10
2022-12-03T18:39:00.946Z,3.00
2022-12-03T18:41:27.890Z,3.00
2022-12-03T18:43:55.010Z,2.90
2022-12-03T18:49:10.096Z,3.00
2022-12-03T18:51:37.240Z,3.00
2022-12-03T18:54:04.213Z,2.90
2022-12-03T18:56:30.833Z,2.80
2022-12-03T18:58:57.859Z,2.90
2022-12-03T19:01:24.566Z,2.90
2022-12-03T19:03:53.402Z,2.90
2022-12-03T19:06:21.144Z,2.90
2022-12-03T19:08:49.276Z,2.90
2022-12-03T19:11:15.926Z,2.90
2022-12-03T19:13:42.986Z,2.90
2022-12-03T19:16:11.917Z,2.90
2022-12-03T19:18:39.177Z,2.90
2022-12-03T19:21:11.500Z,2.90
2022-12-03T19:23:38.191Z,2.90
2022-12-03T19:26:06.988Z,3.00
2022-12-03T19:28:34.396Z,2.90
2022-12-03T19:31:14.293Z,2.80
2022-12-03T19:33:42.521Z,2.80
2022-12-03T19:36:19.663Z,2.80
2022-12-03T19:38:52.173Z,2.80
2022-12-03T19:41:27.278Z,2.80
2022-12-03T19:43:56.351Z,2.80
2022-12-03T19:46:25.082Z,2.70
2022-12-03T19:48:53.232Z,2.80
2022-12-03T19:51:34.213Z,2.80
2022-12-03T19:54:06.036Z,2.80
2022-12-03T19:56:32.775Z,2.80
2022-12-03T19:58:59.446Z,2.80
2022-12-03T20:01:30.274Z,2.80
2022-12-03T20:03:58.316Z,2.90
2022-12-03T20:06:27.840Z,2.90
2022-12-03T20:09:04.352Z,2.90
2022-12-03T20:11:33.146Z,2.80
2022-12-03T20:14:02.984Z,2.80
2022-12-03T20:16:29.877Z,2.90
2022-12-03T20:19:01.709Z,2.90
2022-12-03T20:21:31.393Z,2.80
2022-12-03T20:23:58.769Z,2.90
2022-12-03T20:26:25.473Z,2.90
2022-12-03T20:28:55.400Z,2.80
2022-12-03T20:31:24.329Z,2.80
2022-12-03T20:33:53.885Z,4.20
2022-12-03T20:36:22.484Z,3.90
2022-12-03T20:38:53.111Z,3.70
2022-12-03T20:41:19.802Z,3.40
2022-12-03T20:43:46.593Z,3.20
2022-12-03T20:46:14.756Z,3.10
2022-12-03T20:48:42.404Z,3.00
2022-12-03T20:51:14.966Z,3.00
2022-12-03T20:53:42.049Z,3.00
2022-12-03T20:56:15.789Z,2.90
2022-12-03T20:58:42.401Z,2.90
2022-12-03T21:01:16.131Z,2.90
2022-12-03T21:03:43.895Z,2.90
2022-12-03T21:06:11.172Z,2.80
2022-12-03T21:08:42.612Z,2.80
2022-12-03T21:11:30.594Z,2.80
2022-12-03T21:13:58.270Z,2.80
2022-12-03T21:16:51.879Z,2.90
2022-12-03T21:19:17.039Z,2.90
2022-12-03T21:21:43.740Z,2.80
2022-12-03T21:24:12.145Z,2.80
2022-12-03T21:26:38.835Z,2.80
2022-12-03T21:29:05.457Z,2.80
2022-12-03T21:31:32.403Z,2.80
2022-12-03T21:33:59.229Z,2.80
2022-12-03T21:36:26.062Z,2.80
2022-12-03T21:38:52.767Z,2.80
2022-12-03T21:41:19.413Z,2.80
2022-12-03T21:43:46.350Z,2.80
2022-12-03T21:47:11.701Z,2.80
2022-12-03T21:49:01.883Z,2.70
2022-12-03T21:51:28.623Z,2.80
2022-12-03T21:53:55.236Z,2.80
2022-12-03T21:56:21.889Z,2.80
2022-12-03T21:58:48.658Z,2.80
2022-12-03T22:01:17.680Z,2.80
2022-12-03T22:03:44.915Z,2.90
2022-12-03T22:06:11.665Z,2.80
2022-12-03T22:08:38.701Z,2.80
2022-12-03T22:11:13.327Z,2.80
2022-12-03T22:13:40.762Z,2.80
2022-12-03T22:16:10.017Z,2.80
2022-12-03T22:18:36.977Z,2.80
2022-12-03T22:21:05.652Z,2.80
2022-12-03T22:23:32.918Z,2.80
2022-12-03T22:26:03.418Z,2.80
2022-12-03T22:28:30.585Z,2.80
2022-12-03T22:30:57.474Z,2.90
2022-12-03T22:33:24.516Z,2.80
2022-12-03T22:35:55.918Z,2.90
2022-12-03T22:38:22.660Z,2.90
2022-12-03T22:40:49.282Z,2.90
2022-12-03T22:43:16.283Z,2.90
2022-12-03T22:45:42.894Z,2.90
2022-12-03T22:48:09.633Z,2.90
2022-12-03T22:50:43.106Z,2.90
2022-12-03T22:53:09.839Z,2.90
2022-12-03T22:55:36.455Z,2.80
2022-12-03T22:58:04.193Z,2.90
2022-12-03T23:00:34.401Z,2.90
2022-12-03T23:03:01.182Z,2.90
2022-12-03T23:05:32.556Z,2.90
2022-12-03T23:07:59.247Z,2.80
2022-12-03T23:10:30.929Z,2.80
2022-12-03T23:12:59.207Z,2.80
2022-12-03T23:15:25.849Z,2.80
2022-12-03T23:17:52.468Z,2.80
2022-12-03T23:20:19.124Z,2.80
2022-12-03T23:22:45.809Z,2.80
2022-12-03T23:25:12.473Z,2.80
2022-12-03T23:27:39.080Z,2.90
2022-12-03T23:30:07.810Z,2.80
2022-12-03T23:32:37.533Z,2.70
2022-12-03T23:35:05.234Z,2.80
2022-12-03T23:37:31.858Z,2.70
2022-12-03T23:39:58.469Z,2.70
2022-12-03T23:42:25.085Z,2.70
2022-12-03T23:44:51.767Z,2.60
2022-12-03T23:47:18.396Z,2.60
2022-12-03T23:49:45.043Z,2.70
2022-12-03T23:52:11.919Z,2.70
2022-12-03T23:54:38.544Z,2.70
2022-12-03T23:57:05.202Z,2.60
2022-12-03T23:59:31.894Z,2.60
